sensor_id;sensor_type;location;lat;lon;timestamp;pressure;altitude;pressure_sealevel;temperature;humidity
77041;BME280;65974;42.664;23.264;2023-07-20T00:03:14;94089.44;;;22.72;55.38
77041;BME280;65974;42.664;23.264;2023-07-20T00:05:45;94079.31;;;22.72;55.02
77041;BME280;65974;42.664;23.264;2023-07-20T00:08:10;94074.63;;;22.73;55.09
77041;BME280;65974;42.664;23.264;2023-07-20T00:10:36;94061.00;;;22.82;54.98
77041;BME280;65974;42.664;23.264;2023-07-20T00:13:01;94060.66;;;22.89;55.60
77041;BME280;65974;42.664;23.264;2023-07-20T00:15:27;94073.28;;;22.92;53.83
77041;BME280;65974;42.664;23.264;2023-07-20T00:17:52;94081.56;;;22.97;53.92
77041;BME280;65974;42.664;23.264;2023-07-20T00:20:18;94089.03;;;23.02;53.99
77041;BME280;65974;42.664;23.264;2023-07-20T00:22:43;94099.06;;;23.11;53.88
77041;BME280;65974;42.664;23.264;2023-07-20T00:25:09;94103.25;;;23.21;54.85
77041;BME280;65974;42.664;23.264;2023-07-20T00:27:36;94105.56;;;23.28;54.81
77041;BME280;65974;42.664;23.264;2023-07-20T00:30:01;94102.41;;;23.30;54.28
77041;BME280;65974;42.664;23.264;2023-07-20T00:32:27;94108.00;;;23.26;53.71
77041;BME280;65974;42.664;23.264;2023-07-20T00:34:52;94105.75;;;23.25;54.10
77041;BME280;65974;42.664;23.264;2023-07-20T00:37:18;94107.16;;;23.20;53.96
77041;BME280;65974;42.664;23.264;2023-07-20T00:39:43;94112.31;;;23.18;54.78
77041;BME280;65974;42.664;23.264;2023-07-20T00:42:08;94108.38;;;23.19;55.31
77041;BME280;65974;42.664;23.264;2023-07-20T00:44:34;94092.81;;;23.20;55.60
77041;BME280;65974;42.664;23.264;2023-07-20T00:47:00;94092.94;;;23.25;55.11
77041;BME280;65974;42.664;23.264;2023-07-20T00:49:25;94094.91;;;23.25;55.51
77041;BME280;65974;42.664;23.264;2023-07-20T00:51:51;94087.78;;;23.27;55.38
77041;BME280;65974;42.664;23.264;2023-07-20T00:54:16;94083.06;;;23.28;55.88
77041;BME280;65974;42.664;23.264;2023-07-20T00:56:43;94085.97;;;23.24;55.65
77041;BME280;65974;42.664;23.264;2023-07-20T00:59:09;94084.38;;;23.17;55.80
77041;BME280;65974;42.664;23.264;2023-07-20T01:01:34;94087.56;;;23.16;55.70
77041;BME280;65974;42.664;23.264;2023-07-20T01:04:00;94072.75;;;23.17;56.36
77041;BME280;65974;42.664;23.264;2023-07-20T01:09:11;94081.16;;;23.04;57.18
77041;BME280;65974;42.664;23.264;2023-07-20T01:14:23;94095.28;;;22.94;57.23
77041;BME280;65974;42.664;23.264;2023-07-20T01:16:49;94078.44;;;22.90;58.02
77041;BME280;65974;42.664;23.264;2023-07-20T01:19:17;94072.13;;;22.84;58.44
77041;BME280;65974;42.664;23.264;2023-07-20T01:21:52;94085.44;;;22.82;58.61
77041;BME280;65974;42.664;23.264;2023-07-20T01:24:30;94082.72;;;22.82;59.16
77041;BME280;65974;42.664;23.264;2023-07-20T01:32:02;94096.88;;;22.86;59.91
77041;BME280;65974;42.664;23.264;2023-07-20T01:34:29;94095.09;;;22.83;59.80
77041;BME280;65974;42.664;23.264;2023-07-20T01:36:55;94092.16;;;22.72;60.52
77041;BME280;65974;42.664;23.264;2023-07-20T01:39:23;94103.06;;;22.63;60.71
77041;BME280;65974;42.664;23.264;2023-07-20T01:41:49;94093.25;;;22.65;61.27
77041;BME280;65974;42.664;23.264;2023-07-20T01:44:14;94086.31;;;22.64;61.45
77041;BME280;65974;42.664;23.264;2023-07-20T01:46:40;94083.94;;;22.57;61.72
77041;BME280;65974;42.664;23.264;2023-07-20T01:49:05;94084.13;;;22.45;61.62
77041;BME280;65974;42.664;23.264;2023-07-20T01:51:31;94072.50;;;22.29;62.22
77041;BME280;65974;42.664;23.264;2023-07-20T01:53:57;94078.81;;;22.26;62.92
77041;BME280;65974;42.664;23.264;2023-07-20T01:56:22;94085.34;;;22.20;63.28
77041;BME280;65974;42.664;23.264;2023-07-20T01:58:47;94079.63;;;22.18;63.86
77041;BME280;65974;42.664;23.264;2023-07-20T02:01:13;94072.28;;;22.09;63.45
77041;BME280;65974;42.664;23.264;2023-07-20T02:03:38;94078.00;;;22.11;63.83
77041;BME280;65974;42.664;23.264;2023-07-20T02:06:04;94076.66;;;22.07;63.99
77041;BME280;65974;42.664;23.264;2023-07-20T02:08:29;94082.53;;;22.05;64.19
77041;BME280;65974;42.664;23.264;2023-07-20T02:10:54;94074.41;;;22.05;64.52
77041;BME280;65974;42.664;23.264;2023-07-20T02:13:20;94074.28;;;22.00;64.40
77041;BME280;65974;42.664;23.264;2023-07-20T02:15:45;94076.28;;;21.90;64.25
77041;BME280;65974;42.664;23.264;2023-07-20T02:18:12;94076.28;;;21.90;63.90
77041;BME280;65974;42.664;23.264;2023-07-20T02:20:38;94082.47;;;21.91;64.55
77041;BME280;65974;42.664;23.264;2023-07-20T02:23:03;94081.53;;;21.94;64.41
77041;BME280;65974;42.664;23.264;2023-07-20T02:25:29;94080.34;;;21.95;63.85
77041;BME280;65974;42.664;23.264;2023-07-20T02:27:56;94080.81;;;21.93;64.18
77041;BME280;65974;42.664;23.264;2023-07-20T02:30:21;94079.00;;;21.90;64.30
77041;BME280;65974;42.664;23.264;2023-07-20T02:32:47;94082.59;;;21.87;64.11
77041;BME280;65974;42.664;23.264;2023-07-20T02:35:14;94073.28;;;21.88;64.27
77041;BME280;65974;42.664;23.264;2023-07-20T02:37:40;94071.31;;;21.89;64.62
77041;BME280;65974;42.664;23.264;2023-07-20T02:40:06;94075.41;;;21.84;64.29
77041;BME280;65974;42.664;23.264;2023-07-20T02:42:32;94066.81;;;21.86;64.54
77041;BME280;65974;42.664;23.264;2023-07-20T02:44:58;94056.72;;;21.86;64.51
77041;BME280;65974;42.664;23.264;2023-07-20T02:47:23;94049.78;;;21.85;64.77
77041;BME280;65974;42.664;23.264;2023-07-20T02:49:49;94051.88;;;21.81;64.94
77041;BME280;65974;42.664;23.264;2023-07-20T02:52:14;94041.97;;;21.78;64.95
77041;BME280;65974;42.664;23.264;2023-07-20T02:54:40;94046.50;;;21.72;65.06
77041;BME280;65974;42.664;23.264;2023-07-20T02:57:05;94057.97;;;21.67;65.31
77041;BME280;65974;42.664;23.264;2023-07-20T02:59:31;94053.19;;;21.53;66.14
77041;BME280;65974;42.664;23.264;2023-07-20T03:01:56;94047.53;;;21.33;66.22
77041;BME280;65974;42.664;23.264;2023-07-20T03:04:23;94054.94;;;21.14;66.49
77041;BME280;65974;42.664;23.264;2023-07-20T03:06:50;94057.78;;;21.02;66.80
77041;BME280;65974;42.664;23.264;2023-07-20T03:09:16;94055.53;;;20.91;66.58
77041;BME280;65974;42.664;23.264;2023-07-20T03:11:42;94049.22;;;20.76;66.66
77041;BME280;65974;42.664;23.264;2023-07-20T03:14:08;94057.34;;;20.67;67.33
77041;BME280;65974;42.664;23.264;2023-07-20T03:16:35;94057.78;;;20.65;66.98
77041;BME280;65974;42.664;23.264;2023-07-20T03:19:00;94059.44;;;20.54;67.51
77041;BME280;65974;42.664;23.264;2023-07-20T03:21:26;94069.19;;;20.51;67.88
77041;BME280;65974;42.664;23.264;2023-07-20T03:23:51;94065.88;;;20.47;68.44
77041;BME280;65974;42.664;23.264;2023-07-20T03:26:17;94077.91;;;20.46;68.71
77041;BME280;65974;42.664;23.264;2023-07-20T03:28:42;94078.50;;;20.41;69.00
77041;BME280;65974;42.664;23.264;2023-07-20T03:31:07;94068.72;;;20.35;69.37
77041;BME280;65974;42.664;23.264;2023-07-20T03:33:34;94081.50;;;20.34;69.46
77041;BME280;65974;42.664;23.264;2023-07-20T03:35:59;94073.97;;;20.38;69.31
77041;BME280;65974;42.664;23.264;2023-07-20T03:38:26;94073.25;;;20.38;69.07
77041;BME280;65974;42.664;23.264;2023-07-20T03:40:53;94072.94;;;20.36;68.81
77041;BME280;65974;42.664;23.264;2023-07-20T03:43:19;94078.66;;;20.38;69.14
77041;BME280;65974;42.664;23.264;2023-07-20T03:45:46;94078.78;;;20.34;69.33
77041;BME280;65974;42.664;23.264;2023-07-20T03:48:12;94077.88;;;20.28;69.41
77041;BME280;65974;42.664;23.264;2023-07-20T03:50:38;94077.88;;;20.28;69.62
77041;BME280;65974;42.664;23.264;2023-07-20T03:53:03;94087.19;;;20.27;69.57
77041;BME280;65974;42.664;23.264;2023-07-20T03:55:29;94079.50;;;20.26;70.06
77041;BME280;65974;42.664;23.264;2023-07-20T03:57:54;94078.47;;;20.32;69.53
77041;BME280;65974;42.664;23.264;2023-07-20T04:00:20;94087.06;;;20.40;68.84
77041;BME280;65974;42.664;23.264;2023-07-20T04:02:45;94085.88;;;20.41;68.97
77041;BME280;65974;42.664;23.264;2023-07-20T04:05:11;94078.22;;;20.48;69.01
77041;BME280;65974;42.664;23.264;2023-07-20T04:07:36;94068.91;;;20.58;69.01
77041;BME280;65974;42.664;23.264;2023-07-20T04:10:02;94064.09;;;20.71;68.36
77041;BME280;65974;42.664;23.264;2023-07-20T04:12:27;94062.00;;;20.84;68.52
77041;BME280;65974;42.664;23.264;2023-07-20T04:14:53;94064.09;;;20.89;68.03
77041;BME280;65974;42.664;23.264;2023-07-20T04:17:18;94051.75;;;20.98;68.16
77041;BME280;65974;42.664;23.264;2023-07-20T04:19:44;94051.78;;;21.07;67.26
77041;BME280;65974;42.664;23.264;2023-07-20T04:22:09;94054.66;;;21.12;67.73
77041;BME280;65974;42.664;23.264;2023-07-20T04:24:34;94056.72;;;21.17;67.56
77041;BME280;65974;42.664;23.264;2023-07-20T04:27:00;94052.50;;;21.25;67.40
77041;BME280;65974;42.664;23.264;2023-07-20T04:29:25;94049.94;;;21.31;67.21
77041;BME280;65974;42.664;23.264;2023-07-20T04:31:51;94051.88;;;21.39;66.98
77041;BME280;65974;42.664;23.264;2023-07-20T04:34:16;94055.75;;;21.47;66.72
77041;BME280;65974;42.664;23.264;2023-07-20T04:36:42;94054.69;;;21.54;66.95
77041;BME280;65974;42.664;23.264;2023-07-20T04:39:09;94050.16;;;21.60;66.39
77041;BME280;65974;42.664;23.264;2023-07-20T04:41:34;94048.47;;;21.72;65.87
77041;BME280;65974;42.664;23.264;2023-07-20T04:44:00;94045.28;;;21.82;65.30
77041;BME280;65974;42.664;23.264;2023-07-20T04:46:25;94047.66;;;21.89;65.12
77041;BME280;65974;42.664;23.264;2023-07-20T04:48:51;94048.56;;;21.95;64.67
77041;BME280;65974;42.664;23.264;2023-07-20T04:51:16;94049.13;;;21.99;63.92
77041;BME280;65974;42.664;23.264;2023-07-20T04:53:46;94048.19;;;22.02;63.54
77041;BME280;65974;42.664;23.264;2023-07-20T04:56:11;94049.88;;;22.00;63.63
77041;BME280;65974;42.664;23.264;2023-07-20T04:58:37;94049.88;;;22.00;63.37
77041;BME280;65974;42.664;23.264;2023-07-20T05:01:02;94047.78;;;21.95;64.25
77041;BME280;65974;42.664;23.264;2023-07-20T05:03:28;94045.38;;;21.97;64.49
77041;BME280;65974;42.664;23.264;2023-07-20T05:05:53;94045.03;;;22.04;64.25
77041;BME280;65974;42.664;23.264;2023-07-20T05:08:19;94042.16;;;22.07;63.56
77041;BME280;65974;42.664;23.264;2023-07-20T05:10:44;94043.31;;;22.15;63.38
77041;BME280;65974;42.664;23.264;2023-07-20T05:13:10;94046.44;;;22.23;63.50
77041;BME280;65974;42.664;23.264;2023-07-20T05:15:35;94059.25;;;22.22;63.58
77041;BME280;65974;42.664;23.264;2023-07-20T05:18:01;94057.13;;;22.26;64.09
77041;BME280;65974;42.664;23.264;2023-07-20T05:20:26;94054.34;;;22.35;63.35
77041;BME280;65974;42.664;23.264;2023-07-20T05:22:52;94058.22;;;22.44;62.32
77041;BME280;65974;42.664;23.264;2023-07-20T05:25:18;94056.09;;;22.48;62.20
77041;BME280;65974;42.664;23.264;2023-07-20T05:27:44;94061.31;;;22.51;62.60
77041;BME280;65974;42.664;23.264;2023-07-20T05:30:11;94073.50;;;22.56;61.61
77041;BME280;65974;42.664;23.264;2023-07-20T05:32:36;94074.13;;;22.60;61.83
77041;BME280;65974;42.664;23.264;2023-07-20T05:35:02;94069.84;;;22.68;60.22
77041;BME280;65974;42.664;23.264;2023-07-20T05:37:28;94064.06;;;22.75;60.66
77041;BME280;65974;42.664;23.264;2023-07-20T05:39:53;94070.53;;;22.77;61.03
77041;BME280;65974;42.664;23.264;2023-07-20T05:42:19;94080.91;;;22.79;60.84
77041;BME280;65974;42.664;23.264;2023-07-20T05:44:44;94071.66;;;22.85;59.42
77041;BME280;65974;42.664;23.264;2023-07-20T05:47:09;94086.28;;;22.88;59.50
77041;BME280;65974;42.664;23.264;2023-07-20T05:49:35;94086.56;;;22.90;59.33
77041;BME280;65974;42.664;23.264;2023-07-20T05:52:01;94082.66;;;22.91;59.57
77041;BME280;65974;42.664;23.264;2023-07-20T05:54:27;94075.22;;;22.91;59.27
77041;BME280;65974;42.664;23.264;2023-07-20T05:56:53;94078.34;;;22.99;59.54
77041;BME280;65974;42.664;23.264;2023-07-20T05:59:19;94073.22;;;23.01;59.81
77041;BME280;65974;42.664;23.264;2023-07-20T06:01:45;94069.28;;;23.02;58.61
77041;BME280;65974;42.664;23.264;2023-07-20T06:04:10;94079.50;;;23.07;58.81
77041;BME280;65974;42.664;23.264;2023-07-20T06:06:36;94074.19;;;23.12;59.20
77041;BME280;65974;42.664;23.264;2023-07-20T06:09:02;94072.13;;;23.22;59.21
77041;BME280;65974;42.664;23.264;2023-07-20T06:11:33;94078.59;;;23.25;59.08
77041;BME280;65974;42.664;23.264;2023-07-20T06:13:58;94072.78;;;23.32;58.34
77041;BME280;65974;42.664;23.264;2023-07-20T06:16:24;94072.91;;;23.37;58.33
77041;BME280;65974;42.664;23.264;2023-07-20T06:18:49;94075.53;;;23.46;57.71
77041;BME280;65974;42.664;23.264;2023-07-20T06:21:15;94062.78;;;23.52;56.92
77041;BME280;65974;42.664;23.264;2023-07-20T06:23:40;94057.84;;;23.51;56.33
77041;BME280;65974;42.664;23.264;2023-07-20T06:26:06;94057.91;;;23.56;56.34
77041;BME280;65974;42.664;23.264;2023-07-20T06:28:32;94047.31;;;23.58;56.55
77041;BME280;65974;42.664;23.264;2023-07-20T06:31:02;94055.00;;;23.60;56.22
77041;BME280;65974;42.664;23.264;2023-07-20T06:33:28;94053.13;;;23.66;55.85
77041;BME280;65974;42.664;23.264;2023-07-20T06:35:53;94056.88;;;23.68;56.72
77041;BME280;65974;42.664;23.264;2023-07-20T06:38:19;94044.84;;;23.75;56.82
77041;BME280;65974;42.664;23.264;2023-07-20T06:40:48;94041.47;;;23.80;56.41
77041;BME280;65974;42.664;23.264;2023-07-20T06:43:13;94044.81;;;23.89;56.99
77041;BME280;65974;42.664;23.264;2023-07-20T06:45:39;94048.69;;;23.98;56.93
77041;BME280;65974;42.664;23.264;2023-07-20T06:48:04;94048.56;;;24.07;56.49
77041;BME280;65974;42.664;23.264;2023-07-20T06:50:30;94040.84;;;24.20;56.13
77041;BME280;65974;42.664;23.264;2023-07-20T06:52:55;94046.72;;;24.33;55.24
77041;BME280;65974;42.664;23.264;2023-07-20T06:55:20;94056.53;;;24.45;55.21
77041;BME280;65974;42.664;23.264;2023-07-20T06:57:46;94057.44;;;24.56;55.04
77041;BME280;65974;42.664;23.264;2023-07-20T07:00:12;94070.16;;;24.65;54.37
77041;BME280;65974;42.664;23.264;2023-07-20T07:02:38;94066.38;;;24.77;54.69
77041;BME280;65974;42.664;23.264;2023-07-20T07:05:03;94076.16;;;24.69;53.78
77041;BME280;65974;42.664;23.264;2023-07-20T07:07:29;94082.34;;;24.70;53.84
77041;BME280;65974;42.664;23.264;2023-07-20T07:09:54;94087.44;;;24.62;53.91
77041;BME280;65974;42.664;23.264;2023-07-20T07:12:20;94094.78;;;24.56;53.68
77041;BME280;65974;42.664;23.264;2023-07-20T07:14:45;94104.19;;;24.55;53.50
77041;BME280;65974;42.664;23.264;2023-07-20T07:17:11;94112.38;;;24.55;53.96
77041;BME280;65974;42.664;23.264;2023-07-20T07:19:36;94112.66;;;24.57;55.07
77041;BME280;65974;42.664;23.264;2023-07-20T07:22:03;94121.84;;;24.59;54.80
77041;BME280;65974;42.664;23.264;2023-07-20T07:24:28;94126.13;;;24.66;55.16
77041;BME280;65974;42.664;23.264;2023-07-20T07:27:01;94129.19;;;24.74;56.07
77041;BME280;65974;42.664;23.264;2023-07-20T07:29:27;94117.84;;;24.75;56.73
77041;BME280;65974;42.664;23.264;2023-07-20T07:31:52;94128.66;;;24.70;56.53
77041;BME280;65974;42.664;23.264;2023-07-20T07:34:18;94119.19;;;24.65;56.53
77041;BME280;65974;42.664;23.264;2023-07-20T07:36:43;94112.22;;;24.64;56.91
77041;BME280;65974;42.664;23.264;2023-07-20T07:39:09;94100.38;;;24.67;57.39
77041;BME280;65974;42.664;23.264;2023-07-20T07:41:35;94100.94;;;24.71;58.01
77041;BME280;65974;42.664;23.264;2023-07-20T07:44:00;94100.09;;;24.80;57.77
77041;BME280;65974;42.664;23.264;2023-07-20T07:46:26;94100.91;;;24.86;57.39
77041;BME280;65974;42.664;23.264;2023-07-20T07:48:51;94081.47;;;24.98;57.12
77041;BME280;65974;42.664;23.264;2023-07-20T07:51:17;94070.44;;;25.07;57.14
77041;BME280;65974;42.664;23.264;2023-07-20T07:53:42;94059.31;;;25.11;56.66
77041;BME280;65974;42.664;23.264;2023-07-20T07:56:09;94073.06;;;25.22;57.21
77041;BME280;65974;42.664;23.264;2023-07-20T07:58:34;94064.72;;;25.31;56.36
77041;BME280;65974;42.664;23.264;2023-07-20T08:01:00;94058.78;;;25.32;55.78
77041;BME280;65974;42.664;23.264;2023-07-20T08:03:26;94075.03;;;25.42;55.71
77041;BME280;65974;42.664;23.264;2023-07-20T08:05:54;94099.75;;;25.38;54.81
77041;BME280;65974;42.664;23.264;2023-07-20T08:08:20;94110.25;;;25.45;55.56
77041;BME280;65974;42.664;23.264;2023-07-20T08:10:46;94120.06;;;25.57;55.79
77041;BME280;65974;42.664;23.264;2023-07-20T08:13:11;94132.59;;;25.49;55.50
77041;BME280;65974;42.664;23.264;2023-07-20T08:15:36;94128.50;;;25.39;56.49
77041;BME280;65974;42.664;23.264;2023-07-20T08:18:02;94136.09;;;25.29;55.97
77041;BME280;65974;42.664;23.264;2023-07-20T08:20:27;94149.47;;;25.07;54.90
77041;BME280;65974;42.664;23.264;2023-07-20T08:22:54;94154.09;;;24.81;55.00
77041;BME280;65974;42.664;23.264;2023-07-20T08:25:20;94141.25;;;24.67;54.01
77041;BME280;65974;42.664;23.264;2023-07-20T08:27:46;94143.69;;;24.65;52.51
77041;BME280;65974;42.664;23.264;2023-07-20T08:30:13;94137.22;;;24.62;53.15
77041;BME280;65974;42.664;23.264;2023-07-20T08:32:38;94146.97;;;24.69;52.20
77041;BME280;65974;42.664;23.264;2023-07-20T08:35:05;94149.16;;;24.65;52.61
77041;BME280;65974;42.664;23.264;2023-07-20T08:37:31;94145.09;;;24.75;52.67
77041;BME280;65974;42.664;23.264;2023-07-20T08:39:56;94148.09;;;24.77;51.72
77041;BME280;65974;42.664;23.264;2023-07-20T08:42:22;94154.34;;;24.83;51.72
77041;BME280;65974;42.664;23.264;2023-07-20T08:44:48;94150.69;;;24.86;52.13
77041;BME280;65974;42.664;23.264;2023-07-20T08:47:16;94140.44;;;24.96;51.78
77041;BME280;65974;42.664;23.264;2023-07-20T08:49:41;94135.34;;;25.09;50.35
77041;BME280;65974;42.664;23.264;2023-07-20T08:52:08;94137.41;;;25.14;50.40
77041;BME280;65974;42.664;23.264;2023-07-20T08:54:34;94140.19;;;25.19;50.77
77041;BME280;65974;42.664;23.264;2023-07-20T08:57:03;94133.53;;;25.20;50.47
77041;BME280;65974;42.664;23.264;2023-07-20T08:59:29;94131.59;;;25.26;50.67
77041;BME280;65974;42.664;23.264;2023-07-20T09:01:56;94128.59;;;25.24;49.71
77041;BME280;65974;42.664;23.264;2023-07-20T09:04:22;94117.47;;;25.28;50.21
77041;BME280;65974;42.664;23.264;2023-07-20T09:06:49;94112.63;;;25.37;50.62
77041;BME280;65974;42.664;23.264;2023-07-20T09:09:15;94116.47;;;25.46;49.16
77041;BME280;65974;42.664;23.264;2023-07-20T09:11:40;94117.75;;;25.50;49.05
77041;BME280;65974;42.664;23.264;2023-07-20T09:14:07;94119.31;;;25.57;48.96
77041;BME280;65974;42.664;23.264;2023-07-20T09:16:47;94117.59;;;25.59;48.98
77041;BME280;65974;42.664;23.264;2023-07-20T09:19:15;94119.41;;;25.68;48.88
77041;BME280;65974;42.664;23.264;2023-07-20T09:21:40;94103.81;;;25.68;48.85
77041;BME280;65974;42.664;23.264;2023-07-20T09:24:06;94107.38;;;25.80;47.38
77041;BME280;65974;42.664;23.264;2023-07-20T09:26:40;94116.81;;;25.79;46.41
77041;BME280;65974;42.664;23.264;2023-07-20T09:29:07;94098.22;;;25.83;47.24
77041;BME280;65974;42.664;23.264;2023-07-20T09:31:33;94092.31;;;25.90;46.10
77041;BME280;65974;42.664;23.264;2023-07-20T09:33:59;94112.50;;;25.98;46.16
77041;BME280;65974;42.664;23.264;2023-07-20T09:36:26;94119.22;;;26.02;46.14
77041;BME280;65974;42.664;23.264;2023-07-20T09:38:52;94114.25;;;26.01;46.19
77041;BME280;65974;42.664;23.264;2023-07-20T09:41:18;94099.31;;;25.96;45.99
77041;BME280;65974;42.664;23.264;2023-07-20T09:43:45;94099.63;;;26.04;46.25
77041;BME280;65974;42.664;23.264;2023-07-20T09:46:10;94097.59;;;26.30;45.31
77041;BME280;65974;42.664;23.264;2023-07-20T09:48:36;94102.44;;;26.46;45.00
77041;BME280;65974;42.664;23.264;2023-07-20T09:51:02;94095.59;;;26.67;45.52
77041;BME280;65974;42.664;23.264;2023-07-20T09:53:28;94076.06;;;26.80;44.31
77041;BME280;65974;42.664;23.264;2023-07-20T09:55:55;94056.44;;;26.81;44.19
77041;BME280;65974;42.664;23.264;2023-07-20T09:58:21;94047.75;;;26.88;43.80
77041;BME280;65974;42.664;23.264;2023-07-20T10:00:48;94055.19;;;26.82;41.77
77041;BME280;65974;42.664;23.264;2023-07-20T10:03:19;94063.09;;;26.75;40.49
77041;BME280;65974;42.664;23.264;2023-07-20T10:05:56;94052.22;;;26.80;41.17
77041;BME280;65974;42.664;23.264;2023-07-20T10:08:25;94066.84;;;26.77;41.24
77041;BME280;65974;42.664;23.264;2023-07-20T10:10:50;94068.59;;;26.80;41.79
77041;BME280;65974;42.664;23.264;2023-07-20T10:13:26;94071.13;;;26.89;41.98
77041;BME280;65974;42.664;23.264;2023-07-20T10:16:03;94068.91;;;26.99;40.97
77041;BME280;65974;42.664;23.264;2023-07-20T10:18:54;94070.94;;;27.04;41.17
77041;BME280;65974;42.664;23.264;2023-07-20T10:21:23;94079.34;;;27.01;41.49
77041;BME280;65974;42.664;23.264;2023-07-20T10:23:48;94081.13;;;27.04;42.12
77041;BME280;65974;42.664;23.264;2023-07-20T10:26:14;94079.88;;;27.05;42.28
77041;BME280;65974;42.664;23.264;2023-07-20T10:28:41;94074.41;;;27.05;42.08
77041;BME280;65974;42.664;23.264;2023-07-20T10:31:12;94057.53;;;27.06;41.71
77041;BME280;65974;42.664;23.264;2023-07-20T10:33:38;94054.03;;;27.11;42.19
77041;BME280;65974;42.664;23.264;2023-07-20T10:36:05;94057.06;;;27.19;41.10
77041;BME280;65974;42.664;23.264;2023-07-20T10:41:37;94062.03;;;27.15;41.31
77041;BME280;65974;42.664;23.264;2023-07-20T10:44:07;94010.06;;;27.15;41.28
77041;BME280;65974;42.664;23.264;2023-07-20T10:49:06;93988.94;;;27.21;42.72
77041;BME280;65974;42.664;23.264;2023-07-20T10:51:45;94010.09;;;27.26;42.90
77041;BME280;65974;42.664;23.264;2023-07-20T10:56:44;94004.91;;;27.39;43.66
77041;BME280;65974;42.664;23.264;2023-07-20T11:01:45;93977.78;;;27.52;43.41
77041;BME280;65974;42.664;23.264;2023-07-20T11:04:12;93985.50;;;27.64;43.76
77041;BME280;65974;42.664;23.264;2023-07-20T11:06:38;93977.78;;;27.74;42.53
77041;BME280;65974;42.664;23.264;2023-07-20T11:09:09;93977.03;;;27.85;42.73
77041;BME280;65974;42.664;23.264;2023-07-20T11:11:44;93980.78;;;27.98;43.65
77041;BME280;65974;42.664;23.264;2023-07-20T11:14:21;93981.50;;;28.10;42.88
77041;BME280;65974;42.664;23.264;2023-07-20T11:16:47;93984.69;;;28.25;42.42
77041;BME280;65974;42.664;23.264;2023-07-20T11:21:49;93979.63;;;28.46;41.07
77041;BME280;65974;42.664;23.264;2023-07-20T11:24:15;93974.16;;;28.57;41.12
77041;BME280;65974;42.664;23.264;2023-07-20T11:26:45;93971.38;;;28.68;40.82
77041;BME280;65974;42.664;23.264;2023-07-20T11:29:12;93971.81;;;28.77;42.01
77041;BME280;65974;42.664;23.264;2023-07-20T11:31:39;93971.56;;;28.81;41.12
77041;BME280;65974;42.664;23.264;2023-07-20T11:34:05;93962.59;;;28.80;40.93
77041;BME280;65974;42.664;23.264;2023-07-20T11:36:31;93958.09;;;28.83;41.35
77041;BME280;65974;42.664;23.264;2023-07-20T11:38:58;93955.88;;;28.81;43.18
77041;BME280;65974;42.664;23.264;2023-07-20T11:41:24;93959.31;;;28.87;40.82
77041;BME280;65974;42.664;23.264;2023-07-20T11:43:50;93944.09;;;28.92;40.69
77041;BME280;65974;42.664;23.264;2023-07-20T11:46:16;93939.56;;;28.94;41.55
77041;BME280;65974;42.664;23.264;2023-07-20T11:48:41;93937.28;;;29.04;41.45
77041;BME280;65974;42.664;23.264;2023-07-20T11:51:13;93938.97;;;29.07;41.31
77041;BME280;65974;42.664;23.264;2023-07-20T11:53:39;93938.69;;;29.16;41.98
77041;BME280;65974;42.664;23.264;2023-07-20T11:56:04;93931.47;;;29.19;40.19
77041;BME280;65974;42.664;23.264;2023-07-20T11:58:30;93924.84;;;29.33;39.79
77041;BME280;65974;42.664;23.264;2023-07-20T12:00:55;93931.16;;;29.57;38.43
77041;BME280;65974;42.664;23.264;2023-07-20T12:03:21;93926.66;;;29.60;36.72
77041;BME280;65974;42.664;23.264;2023-07-20T12:05:46;93924.00;;;29.78;34.74
77041;BME280;65974;42.664;23.264;2023-07-20T12:08:12;93921.84;;;29.96;34.72
77041;BME280;65974;42.664;23.264;2023-07-20T12:10:39;93918.97;;;30.07;34.36
77041;BME280;65974;42.664;23.264;2023-07-20T12:13:10;93919.44;;;30.29;33.90
77041;BME280;65974;42.664;23.264;2023-07-20T12:15:37;93907.84;;;30.42;32.35
77041;BME280;65974;42.664;23.264;2023-07-20T12:18:03;93906.72;;;30.69;31.18
77041;BME280;65974;42.664;23.264;2023-07-20T12:23:05;93922.75;;;30.89;30.89
77041;BME280;65974;42.664;23.264;2023-07-20T12:25:42;93908.19;;;30.94;29.90
77041;BME280;65974;42.664;23.264;2023-07-20T12:28:15;93913.22;;;30.90;31.15
77041;BME280;65974;42.664;23.264;2023-07-20T12:30:42;93905.25;;;31.05;31.53
77041;BME280;65974;42.664;23.264;2023-07-20T12:33:07;93905.50;;;31.20;31.66
77041;BME280;65974;42.664;23.264;2023-07-20T12:35:33;93912.38;;;31.46;30.37
77041;BME280;65974;42.664;23.264;2023-07-20T12:37:59;93903.34;;;31.64;29.44
77041;BME280;65974;42.664;23.264;2023-07-20T12:40:25;93893.38;;;31.74;28.18
77041;BME280;65974;42.664;23.264;2023-07-20T12:42:51;93896.41;;;32.28;26.55
77041;BME280;65974;42.664;23.264;2023-07-20T12:45:16;93900.63;;;32.29;26.97
77041;BME280;65974;42.664;23.264;2023-07-20T12:47:42;93900.31;;;32.46;27.11
77041;BME280;65974;42.664;23.264;2023-07-20T12:50:09;93910.72;;;32.53;26.74
77041;BME280;65974;42.664;23.264;2023-07-20T12:52:36;93888.47;;;32.84;26.28
77041;BME280;65974;42.664;23.264;2023-07-20T12:55:04;93892.38;;;33.02;26.11
77041;BME280;65974;42.664;23.264;2023-07-20T12:57:29;93885.66;;;33.11;26.60
77041;BME280;65974;42.664;23.264;2023-07-20T12:59:54;93881.69;;;33.19;26.52
77041;BME280;65974;42.664;23.264;2023-07-20T13:02:20;93890.03;;;33.27;27.19
77041;BME280;65974;42.664;23.264;2023-07-20T13:04:45;93884.38;;;33.32;27.98
77041;BME280;65974;42.664;23.264;2023-07-20T13:07:11;93875.97;;;33.58;26.90
77041;BME280;65974;42.664;23.264;2023-07-20T13:09:39;93873.47;;;33.68;26.84
77041;BME280;65974;42.664;23.264;2023-07-20T13:12:04;93881.53;;;33.87;26.78
77041;BME280;65974;42.664;23.264;2023-07-20T13:14:30;93871.50;;;34.32;26.81